sensor_id;sensor_type;location;lat;lon;timestamp;temperature;humidity
37456;DHT22;23316;50.718;7.328;2022-09-12T00:00:50;18.30;57.20
37456;DHT22;23316;50.718;7.328;2022-09-12T00:03:17;18.20;57.20
37456;DHT22;23316;50.718;7.328;2022-09-12T00:05:45;18.20;57.30
37456;DHT22;23316;50.718;7.328;2022-09-12T00:08:14;18.20;57.40
37456;DHT22;23316;50.718;7.328;2022-09-12T00:10:42;18.20;57.40
37456;DHT22;23316;50.718;7.328;2022-09-12T00:13:11;18.10;57.40
37456;DHT22;23316;50.718;7.328;2022-09-12T00:15:40;18.20;57.50
37456;DHT22;23316;50.718;7.328;2022-09-12T00:18:08;18.10;57.50
37456;DHT22;23316;50.718;7.328;2022-09-12T00:20:41;18.10;57.50
37456;DHT22;23316;50.718;7.328;2022-09-12T00:23:08;18.10;57.60
37456;DHT22;23316;50.718;7.328;2022-09-12T00:25:40;18.10;57.60
37456;DHT22;23316;50.718;7.328;2022-09-12T00:28:07;18.10;57.70
37456;DHT22;23316;50.718;7.328;2022-09-12T00:30:39;18.10;57.60
37456;DHT22;23316;50.718;7.328;2022-09-12T00:33:06;18.00;57.70
37456;DHT22;23316;50.718;7.328;2022-09-12T00:35:34;18.00;57.70
37456;DHT22;23316;50.718;7.328;2022-09-12T00:38:06;18.00;57.70
37456;DHT22;23316;50.718;7.328;2022-09-12T00:40:33;18.00;57.70
37456;DHT22;23316;50.718;7.328;2022-09-12T00:43:00;18.00;57.80
37456;DHT22;23316;50.718;7.328;2022-09-12T00:45:29;18.00;57.80
37456;DHT22;23316;50.718;7.328;2022-09-12T00:48:00;18.00;57.90
37456;DHT22;23316;50.718;7.328;2022-09-12T00:50:28;17.90;58.00
37456;DHT22;23316;50.718;7.328;2022-09-12T00:53:01;17.90;57.90
37456;DHT22;23316;50.718;7.328;2022-09-12T00:55:32;17.90;58.00
37456;DHT22;23316;50.718;7.328;2022-09-12T00:58:03;17.90;58.00
37456;DHT22;23316;50.718;7.328;2022-09-12T01:00:32;17.90;58.00
37456;DHT22;23316;50.718;7.328;2022-09-12T01:03:03;17.90;58.00
37456;DHT22;23316;50.718;7.328;2022-09-12T01:05:34;17.90;58.00
37456;DHT22;23316;50.718;7.328;2022-09-12T01:08:03;17.90;58.10
37456;DHT22;23316;50.718;7.328;2022-09-12T01:10:33;17.80;58.10
37456;DHT22;23316;50.718;7.328;2022-09-12T01:13:03;17.80;58.10
37456;DHT22;23316;50.718;7.328;2022-09-12T01:15:31;17.80;58.10
37456;DHT22;23316;50.718;7.328;2022-09-12T01:18:09;17.80;58.20
37456;DHT22;23316;50.718;7.328;2022-09-12T01:20:59;17.80;58.30
37456;DHT22;23316;50.718;7.328;2022-09-12T01:24:08;17.80;58.40
37456;DHT22;23316;50.718;7.328;2022-09-12T01:26:51;17.70;58.30
37456;DHT22;23316;50.718;7.328;2022-09-12T01:29:49;17.70;58.30
37456;DHT22;23316;50.718;7.328;2022-09-12T01:32:23;17.70;58.40
37456;DHT22;23316;50.718;7.328;2022-09-12T01:34:57;17.70;58.30
37456;DHT22;23316;50.718;7.328;2022-09-12T01:37:36;17.70;58.30
37456;DHT22;23316;50.718;7.328;2022-09-12T01:40:11;17.70;58.40
37456;DHT22;23316;50.718;7.328;2022-09-12T01:42:44;17.60;58.30
37456;DHT22;23316;50.718;7.328;2022-09-12T01:45:19;17.60;58.40
37456;DHT22;23316;50.718;7.328;2022-09-12T01:47:50;17.60;58.40
37456;DHT22;23316;50.718;7.328;2022-09-12T01:50:21;17.60;58.50
37456;DHT22;23316;50.718;7.328;2022-09-12T01:52:53;17.60;58.60
37456;DHT22;23316;50.718;7.328;2022-09-12T01:55:25;17.60;58.60
37456;DHT22;23316;50.718;7.328;2022-09-12T01:57:58;17.50;58.60
37456;DHT22;23316;50.718;7.328;2022-09-12T02:00:26;17.60;58.70
37456;DHT22;23316;50.718;7.328;2022-09-12T02:02:57;17.50;58.60
37456;DHT22;23316;50.718;7.328;2022-09-12T02:05:31;17.50;58.70
37456;DHT22;23316;50.718;7.328;2022-09-12T02:08:03;17.50;58.70
37456;DHT22;23316;50.718;7.328;2022-09-12T02:10:35;17.50;58.70
37456;DHT22;23316;50.718;7.328;2022-09-12T02:13:10;17.50;58.70
37456;DHT22;23316;50.718;7.328;2022-09-12T02:15:41;17.50;58.70
37456;DHT22;23316;50.718;7.328;2022-09-12T02:18:12;17.50;58.70
37456;DHT22;23316;50.718;7.328;2022-09-12T02:20:42;17.40;58.60
37456;DHT22;23316;50.718;7.328;2022-09-12T02:23:14;17.50;58.70
37456;DHT22;23316;50.718;7.328;2022-09-12T02:25:44;17.40;58.60
37456;DHT22;23316;50.718;7.328;2022-09-12T02:28:14;17.40;58.60
37456;DHT22;23316;50.718;7.328;2022-09-12T02:30:50;17.40;58.70
37456;DHT22;23316;50.718;7.328;2022-09-12T02:33:26;17.40;58.70
37456;DHT22;23316;50.718;7.328;2022-09-12T02:35:59;17.40;58.80
37456;DHT22;23316;50.718;7.328;2022-09-12T02:38:32;17.40;58.70
37456;DHT22;23316;50.718;7.328;2022-09-12T02:41:02;17.30;58.70
37456;DHT22;23316;50.718;7.328;2022-09-12T02:43:30;17.30;58.70
37456;DHT22;23316;50.718;7.328;2022-09-12T02:45:57;17.40;58.80
37456;DHT22;23316;50.718;7.328;2022-09-12T02:48:31;17.30;58.70
37456;DHT22;23316;50.718;7.328;2022-09-12T02:51:00;17.30;58.70
37456;DHT22;23316;50.718;7.328;2022-09-12T02:53:28;17.30;58.70
37456;DHT22;23316;50.718;7.328;2022-09-12T02:55:56;17.30;58.70
37456;DHT22;23316;50.718;7.328;2022-09-12T02:58:26;17.30;58.80
37456;DHT22;23316;50.718;7.328;2022-09-12T03:01:02;17.30;58.80
37456;DHT22;23316;50.718;7.328;2022-09-12T03:03:43;17.20;58.80
37456;DHT22;23316;50.718;7.328;2022-09-12T03:06:20;17.20;58.80
37456;DHT22;23316;50.718;7.328;2022-09-12T03:08:58;17.20;58.80
37456;DHT22;23316;50.718;7.328;2022-09-12T03:11:49;17.20;58.80
37456;DHT22;23316;50.718;7.328;2022-09-12T03:17:18;17.20;58.90
37456;DHT22;23316;50.718;7.328;2022-09-12T03:19:55;17.20;58.90
37456;DHT22;23316;50.718;7.328;2022-09-12T03:22:29;17.20;58.90
37456;DHT22;23316;50.718;7.328;2022-09-12T03:25:03;17.20;59.00
37456;DHT22;23316;50.718;7.328;2022-09-12T03:27:34;17.10;59.00
37456;DHT22;23316;50.718;7.328;2022-09-12T03:30:03;17.20;59.00
37456;DHT22;23316;50.718;7.328;2022-09-12T03:32:42;17.10;59.00
37456;DHT22;23316;50.718;7.328;2022-09-12T03:35:12;17.10;59.10
37456;DHT22;23316;50.718;7.328;2022-09-12T03:37:40;17.10;59.00
37456;DHT22;23316;50.718;7.328;2022-09-12T03:40:09;17.10;59.00
37456;DHT22;23316;50.718;7.328;2022-09-12T03:42:36;17.10;59.10
37456;DHT22;23316;50.718;7.328;2022-09-12T03:45:04;17.10;59.00
37456;DHT22;23316;50.718;7.328;2022-09-12T03:47:31;17.10;59.10
37456;DHT22;23316;50.718;7.328;2022-09-12T03:49:59;17.10;59.10
37456;DHT22;23316;50.718;7.328;2022-09-12T03:52:27;17.10;59.10
37456;DHT22;23316;50.718;7.328;2022-09-12T03:54:54;17.00;59.10
37456;DHT22;23316;50.718;7.328;2022-09-12T03:57:22;17.00;59.20
37456;DHT22;23316;50.718;7.328;2022-09-12T03:59:49;17.00;59.20
37456;DHT22;23316;50.718;7.328;2022-09-12T04:02:17;17.00;59.30
37456;DHT22;23316;50.718;7.328;2022-09-12T04:04:45;17.00;59.40
37456;DHT22;23316;50.718;7.328;2022-09-12T04:07:13;17.00;59.50
37456;DHT22;23316;50.718;7.328;2022-09-12T04:09:41;17.00;59.50
37456;DHT22;23316;50.718;7.328;2022-09-12T04:12:09;17.00;59.50
37456;DHT22;23316;50.718;7.328;2022-09-12T04:14:36;17.00;59.60
37456;DHT22;23316;50.718;7.328;2022-09-12T04:17:03;17.00;59.60
37456;DHT22;23316;50.718;7.328;2022-09-12T04:19:30;17.00;59.60
37456;DHT22;23316;50.718;7.328;2022-09-12T04:21:58;17.00;59.60
37456;DHT22;23316;50.718;7.328;2022-09-12T04:24:25;17.00;59.60
37456;DHT22;23316;50.718;7.328;2022-09-12T04:26:53;17.00;59.60
37456;DHT22;23316;50.718;7.328;2022-09-12T04:29:21;17.00;59.70
37456;DHT22;23316;50.718;7.328;2022-09-12T04:31:48;17.00;59.70
37456;DHT22;23316;50.718;7.328;2022-09-12T04:34:16;17.00;59.70
37456;DHT22;23316;50.718;7.328;2022-09-12T04:36:43;17.00;59.60
37456;DHT22;23316;50.718;7.328;2022-09-12T04:39:10;17.00;59.60
37456;DHT22;23316;50.718;7.328;2022-09-12T04:41:39;17.00;59.60
37456;DHT22;23316;50.718;7.328;2022-09-12T04:44:11;17.00;59.60
37456;DHT22;23316;50.718;7.328;2022-09-12T04:46:41;17.00;59.60
37456;DHT22;23316;50.718;7.328;2022-09-12T04:49:09;17.00;59.60
37456;DHT22;23316;50.718;7.328;2022-09-12T04:51:38;17.00;59.60
37456;DHT22;23316;50.718;7.328;2022-09-12T04:54:07;17.00;59.60
37456;DHT22;23316;50.718;7.328;2022-09-12T04:56:37;17.00;59.60
37456;DHT22;23316;50.718;7.328;2022-09-12T04:59:04;17.00;59.60
37456;DHT22;23316;50.718;7.328;2022-09-12T05:01:33;17.00;59.50
37456;DHT22;23316;50.718;7.328;2022-09-12T05:04:01;17.00;59.60
37456;DHT22;23316;50.718;7.328;2022-09-12T05:06:30;17.00;59.60
37456;DHT22;23316;50.718;7.328;2022-09-12T05:08:58;17.00;59.60
37456;DHT22;23316;50.718;7.328;2022-09-12T05:11:28;17.00;59.60
37456;DHT22;23316;50.718;7.328;2022-09-12T05:13:56;17.00;59.60
37456;DHT22;23316;50.718;7.328;2022-09-12T05:16:26;17.00;59.60
37456;DHT22;23316;50.718;7.328;2022-09-12T05:18:55;17.00;59.60
37456;DHT22;23316;50.718;7.328;2022-09-12T05:21:24;17.00;59.60
37456;DHT22;23316;50.718;7.328;2022-09-12T05:23:52;17.00;59.60
37456;DHT22;23316;50.718;7.328;2022-09-12T05:26:21;17.00;59.60
37456;DHT22;23316;50.718;7.328;2022-09-12T05:28:50;17.00;59.60
37456;DHT22;23316;50.718;7.328;2022-09-12T05:31:19;17.00;59.60
37456;DHT22;23316;50.718;7.328;2022-09-12T05:33:48;17.00;59.60
37456;DHT22;23316;50.718;7.328;2022-09-12T05:36:20;17.00;59.60
37456;DHT22;23316;50.718;7.328;2022-09-12T05:38:48;17.00;59.60
37456;DHT22;23316;50.718;7.328;2022-09-12T05:41:17;17.00;59.70
37456;DHT22;23316;50.718;7.328;2022-09-12T05:43:45;17.00;59.70
37456;DHT22;23316;50.718;7.328;2022-09-12T05:46:14;17.00;59.70
37456;DHT22;23316;50.718;7.328;2022-09-12T05:48:42;17.00;59.80
37456;DHT22;23316;50.718;7.328;2022-09-12T05:51:12;17.00;59.80
37456;DHT22;23316;50.718;7.328;2022-09-12T05:53:41;17.00;60.60
37456;DHT22;23316;50.718;7.328;2022-09-12T05:56:10;17.10;60.10
37456;DHT22;23316;50.718;7.328;2022-09-12T05:58:40;17.10;60.20
37456;DHT22;23316;50.718;7.328;2022-09-12T06:01:08;17.10;61.10
37456;DHT22;23316;50.718;7.328;2022-09-12T06:03:40;17.10;60.50
37456;DHT22;23316;50.718;7.328;2022-09-12T06:06:08;17.10;60.50
37456;DHT22;23316;50.718;7.328;2022-09-12T06:08:41;17.20;60.70
37456;DHT22;23316;50.718;7.328;2022-09-12T06:11:10;17.20;60.80
37456;DHT22;23316;50.718;7.328;2022-09-12T06:13:38;17.20;61.40
37456;DHT22;23316;50.718;7.328;2022-09-12T06:16:08;17.30;60.90
37456;DHT22;23316;50.718;7.328;2022-09-12T06:18:36;17.30;60.90
37456;DHT22;23316;50.718;7.328;2022-09-12T06:21:05;17.40;60.90
37456;DHT22;23316;50.718;7.328;2022-09-12T06:23:32;17.40;60.90
37456;DHT22;23316;50.718;7.328;2022-09-12T06:26:01;17.50;60.90
37456;DHT22;23316;50.718;7.328;2022-09-12T06:28:29;17.50;60.90
37456;DHT22;23316;50.718;7.328;2022-09-12T06:31:01;17.50;60.80
37456;DHT22;23316;50.718;7.328;2022-09-12T06:33:29;17.60;61.10
37456;DHT22;23316;50.718;7.328;2022-09-12T06:36:02;17.60;61.10
37456;DHT22;23316;50.718;7.328;2022-09-12T06:38:30;17.70;61.10
37456;DHT22;23316;50.718;7.328;2022-09-12T06:40:58;17.70;60.90
37456;DHT22;23316;50.718;7.328;2022-09-12T06:43:27;17.70;60.90
37456;DHT22;23316;50.718;7.328;2022-09-12T06:45:54;17.80;61.00
37456;DHT22;23316;50.718;7.328;2022-09-12T06:48:22;17.80;60.80
37456;DHT22;23316;50.718;7.328;2022-09-12T06:50:56;17.80;60.80
37456;DHT22;23316;50.718;7.328;2022-09-12T06:53:25;17.90;60.90
37456;DHT22;23316;50.718;7.328;2022-09-12T06:55:56;17.90;60.70
37456;DHT22;23316;50.718;7.328;2022-09-12T06:58:25;17.90;60.80
37456;DHT22;23316;50.718;7.328;2022-09-12T07:01:00;18.00;60.90
37456;DHT22;23316;50.718;7.328;2022-09-12T07:03:28;18.00;60.80
37456;DHT22;23316;50.718;7.328;2022-09-12T07:05:55;18.10;60.90
37456;DHT22;23316;50.718;7.328;2022-09-12T07:08:23;18.10;60.90
37456;DHT22;23316;50.718;7.328;2022-09-12T07:10:50;18.10;60.90
37456;DHT22;23316;50.718;7.328;2022-09-12T07:13:17;18.20;61.00
37456;DHT22;23316;50.718;7.328;2022-09-12T07:15:46;18.20;60.90
37456;DHT22;23316;50.718;7.328;2022-09-12T07:18:14;18.30;61.00
37456;DHT22;23316;50.718;7.328;2022-09-12T07:20:41;18.30;61.00
37456;DHT22;23316;50.718;7.328;2022-09-12T07:23:08;18.30;60.90
37456;DHT22;23316;50.718;7.328;2022-09-12T07:25:36;18.40;60.80
37456;DHT22;23316;50.718;7.328;2022-09-12T07:28:03;18.40;60.80
37456;DHT22;23316;50.718;7.328;2022-09-12T07:30:30;18.40;60.80
37456;DHT22;23316;50.718;7.328;2022-09-12T07:32:59;18.50;60.90
37456;DHT22;23316;50.718;7.328;2022-09-12T07:35:26;18.60;61.10
37456;DHT22;23316;50.718;7.328;2022-09-12T07:37:53;18.60;61.10
37456;DHT22;23316;50.718;7.328;2022-09-12T07:40:21;18.60;61.30
37456;DHT22;23316;50.718;7.328;2022-09-12T07:42:48;18.70;61.30
37456;DHT22;23316;50.718;7.328;2022-09-12T07:45:15;18.70;61.30
37456;DHT22;23316;50.718;7.328;2022-09-12T07:47:42;18.80;61.20
37456;DHT22;23316;50.718;7.328;2022-09-12T07:50:11;18.80;61.10
37456;DHT22;23316;50.718;7.328;2022-09-12T07:52:38;18.90;61.10
37456;DHT22;23316;50.718;7.328;2022-09-12T07:55:06;18.90;61.00
37456;DHT22;23316;50.718;7.328;2022-09-12T07:57:33;19.00;61.10
37456;DHT22;23316;50.718;7.328;2022-09-12T08:00:01;19.00;61.10
37456;DHT22;23316;50.718;7.328;2022-09-12T08:02:28;19.00;61.30
37456;DHT22;23316;50.718;7.328;2022-09-12T08:04:56;19.10;61.30
37456;DHT22;23316;50.718;7.328;2022-09-12T08:07:24;19.20;61.40
37456;DHT22;23316;50.718;7.328;2022-09-12T08:09:51;19.20;61.40
37456;DHT22;23316;50.718;7.328;2022-09-12T08:12:19;19.20;61.30
37456;DHT22;23316;50.718;7.328;2022-09-12T08:14:46;19.30;61.40
37456;DHT22;23316;50.718;7.328;2022-09-12T08:17:14;19.30;61.40
37456;DHT22;23316;50.718;7.328;2022-09-12T08:19:41;19.40;61.60
37456;DHT22;23316;50.718;7.328;2022-09-12T08:22:09;19.40;61.50
37456;DHT22;23316;50.718;7.328;2022-09-12T08:24:38;19.50;61.60
37456;DHT22;23316;50.718;7.328;2022-09-12T08:27:06;19.60;61.70
37456;DHT22;23316;50.718;7.328;2022-09-12T08:29:34;19.60;61.70
37456;DHT22;23316;50.718;7.328;2022-09-12T08:32:01;19.70;61.80
37456;DHT22;23316;50.718;7.328;2022-09-12T08:34:29;19.70;61.90
37456;DHT22;23316;50.718;7.328;2022-09-12T08:36:56;19.80;61.70
37456;DHT22;23316;50.718;7.328;2022-09-12T08:39:23;19.80;61.50
37456;DHT22;23316;50.718;7.328;2022-09-12T08:41:58;19.90;61.40
37456;DHT22;23316;50.718;7.328;2022-09-12T08:44:39;20.00;61.20
37456;DHT22;23316;50.718;7.328;2022-09-12T08:47:16;20.10;61.10
37456;DHT22;23316;50.718;7.328;2022-09-12T08:49:52;20.10;60.80
37456;DHT22;23316;50.718;7.328;2022-09-12T08:52:26;20.20;60.50
37456;DHT22;23316;50.718;7.328;2022-09-12T08:54:54;20.30;61.30
37456;DHT22;23316;50.718;7.328;2022-09-12T08:57:23;20.30;60.80
37456;DHT22;23316;50.718;7.328;2022-09-12T08:59:51;20.40;60.50
37456;DHT22;23316;50.718;7.328;2022-09-12T09:05:36;20.50;60.10
37456;DHT22;23316;50.718;7.328;2022-09-12T09:08:14;20.60;59.80
37456;DHT22;23316;50.718;7.328;2022-09-12T09:10:50;20.60;59.60
37456;DHT22;23316;50.718;7.328;2022-09-12T09:13:37;20.70;59.30
37456;DHT22;23316;50.718;7.328;2022-09-12T09:16:30;20.80;59.40
37456;DHT22;23316;50.718;7.328;2022-09-12T09:19:00;20.80;59.00
37456;DHT22;23316;50.718;7.328;2022-09-12T09:21:32;20.90;58.70
37456;DHT22;23316;50.718;7.328;2022-09-12T09:24:04;20.90;58.70
37456;DHT22;23316;50.718;7.328;2022-09-12T09:26:40;21.00;58.60
37456;DHT22;23316;50.718;7.328;2022-09-12T09:29:15;21.00;58.40
37456;DHT22;23316;50.718;7.328;2022-09-12T09:31:46;21.00;58.20
37456;DHT22;23316;50.718;7.328;2022-09-12T09:34:18;21.10;57.90
37456;DHT22;23316;50.718;7.328;2022-09-12T09:36:50;21.10;57.60
37456;DHT22;23316;50.718;7.328;2022-09-12T09:39:26;21.10;57.20
37456;DHT22;23316;50.718;7.328;2022-09-12T09:42:10;21.20;57.20
37456;DHT22;23316;50.718;7.328;2022-09-12T09:44:40;21.20;57.10
37456;DHT22;23316;50.718;7.328;2022-09-12T09:47:10;21.20;57.20
37456;DHT22;23316;50.718;7.328;2022-09-12T09:49:38;21.30;57.50
37456;DHT22;23316;50.718;7.328;2022-09-12T09:52:07;21.30;57.40
37456;DHT22;23316;50.718;7.328;2022-09-12T09:54:38;21.40;57.40
37456;DHT22;23316;50.718;7.328;2022-09-12T09:57:37;21.40;57.20
37456;DHT22;23316;50.718;7.328;2022-09-12T10:03:23;21.40;57.00
37456;DHT22;23316;50.718;7.328;2022-09-12T10:05:52;21.60;56.90
37456;DHT22;23316;50.718;7.328;2022-09-12T10:08:22;21.60;56.70
37456;DHT22;23316;50.718;7.328;2022-09-12T10:10:54;21.70;56.30
37456;DHT22;23316;50.718;7.328;2022-09-12T10:13:26;21.70;56.10
37456;DHT22;23316;50.718;7.328;2022-09-12T10:15:57;21.80;56.20
37456;DHT22;23316;50.718;7.328;2022-09-12T10:18:40;21.80;55.80
37456;DHT22;23316;50.718;7.328;2022-09-12T10:21:21;21.80;55.20
37456;DHT22;23316;50.718;7.328;2022-09-12T10:23:56;21.90;55.30
37456;DHT22;23316;50.718;7.328;2022-09-12T10:26:26;21.90;55.40
37456;DHT22;23316;50.718;7.328;2022-09-12T10:29:03;21.90;55.30
37456;DHT22;23316;50.718;7.328;2022-09-12T10:31:40;22.00;54.90
37456;DHT22;23316;50.718;7.328;2022-09-12T10:34:20;22.00;54.80
37456;DHT22;23316;50.718;7.328;2022-09-12T10:36:51;22.10;54.50
37456;DHT22;23316;50.718;7.328;2022-09-12T10:39:19;22.10;54.20
37456;DHT22;23316;50.718;7.328;2022-09-12T10:41:47;22.20;53.90
37456;DHT22;23316;50.718;7.328;2022-09-12T10:44:16;22.20;53.90
37456;DHT22;23316;50.718;7.328;2022-09-12T10:46:44;22.30;53.70
37456;DHT22;23316;50.718;7.328;2022-09-12T10:49:23;22.30;54.10
37456;DHT22;23316;50.718;7.328;2022-09-12T10:51:51;22.40;53.30
37456;DHT22;23316;50.718;7.328;2022-09-12T10:54:22;22.40;53.40
37456;DHT22;23316;50.718;7.328;2022-09-12T10:57:16;22.40;53.20
37456;DHT22;23316;50.718;7.328;2022-09-12T11:00:02;22.50;52.70
37456;DHT22;23316;50.718;7.328;2022-09-12T11:02:46;22.60;52.60
37456;DHT22;23316;50.718;7.328;2022-09-12T11:05:26;22.60;52.20
37456;DHT22;23316;50.718;7.328;2022-09-12T11:08:03;22.70;51.90
37456;DHT22;23316;50.718;7.328;2022-09-12T11:10:41;22.70;52.00
37456;DHT22;23316;50.718;7.328;2022-09-12T11:13:22;22.80;51.10
37456;DHT22;23316;50.718;7.328;2022-09-12T11:16:04;22.80;50.90
37456;DHT22;23316;50.718;7.328;2022-09-12T11:18:55;22.90;51.00
37456;DHT22;23316;50.718;7.328;2022-09-12T11:21:42;22.90;50.60
37456;DHT22;23316;50.718;7.328;2022-09-12T11:24:30;22.90;50.70
37456;DHT22;23316;50.718;7.328;2022-09-12T11:27:11;23.00;50.30
37456;DHT22;23316;50.718;7.328;2022-09-12T11:29:48;23.00;50.00
37456;DHT22;23316;50.718;7.328;2022-09-12T11:35:32;23.10;49.60
37456;DHT22;23316;50.718;7.328;2022-09-12T11:38:29;23.10;50.00
37456;DHT22;23316;50.718;7.328;2022-09-12T11:41:01;23.10;49.90
37456;DHT22;23316;50.718;7.328;2022-09-12T11:43:34;23.20;50.20
37456;DHT22;23316;50.718;7.328;2022-09-12T11:46:10;23.20;50.10
37456;DHT22;23316;50.718;7.328;2022-09-12T11:48:45;23.30;48.90
37456;DHT22;23316;50.718;7.328;2022-09-12T11:51:18;23.40;49.00
37456;DHT22;23316;50.718;7.328;2022-09-12T11:53:59;23.40;49.00
37456;DHT22;23316;50.718;7.328;2022-09-12T11:56:28;23.50;48.90
37456;DHT22;23316;50.718;7.328;2022-09-12T11:58:59;23.50;49.20
37456;DHT22;23316;50.718;7.328;2022-09-12T12:01:31;23.60;48.20
37456;DHT22;23316;50.718;7.328;2022-09-12T12:04:07;23.60;48.10
37456;DHT22;23316;50.718;7.328;2022-09-12T12:06:44;23.70;47.90
37456;DHT22;23316;50.718;7.328;2022-09-12T12:09:14;23.70;47.70
37456;DHT22;23316;50.718;7.328;2022-09-12T12:11:46;23.70;47.50
37456;DHT22;23316;50.718;7.328;2022-09-12T12:14:17;23.80;47.40
37456;DHT22;23316;50.718;7.328;2022-09-12T12:16:47;23.80;47.10
37456;DHT22;23316;50.718;7.328;2022-09-12T12:19:29;23.80;47.50
37456;DHT22;23316;50.718;7.328;2022-09-12T12:22:05;23.80;46.40
37456;DHT22;23316;50.718;7.328;2022-09-12T12:24:34;23.90;45.70
37456;DHT22;23316;50.718;7.328;2022-09-12T12:27:24;23.90;46.10
37456;DHT22;23316;50.718;7.328;2022-09-12T12:36:38;24.00;45.70
37456;DHT22;23316;50.718;7.328;2022-09-12T12:45:48;24.20;44.60
37456;DHT22;23316;50.718;7.328;2022-09-12T12:48:24;24.20;44.40
37456;DHT22;23316;50.718;7.328;2022-09-12T12:50:52;24.20;44.50
37456;DHT22;23316;50.718;7.328;2022-09-12T12:53:22;24.30;44.70
37456;DHT22;23316;50.718;7.328;2022-09-12T12:55:53;24.30;45.10
37456;DHT22;23316;50.718;7.328;2022-09-12T12:58:28;24.30;44.30
37456;DHT22;23316;50.718;7.328;2022-09-12T13:01:09;24.30;44.20
37456;DHT22;23316;50.718;7.328;2022-09-12T13:03:39;24.40;44.40
37456;DHT22;23316;50.718;7.328;2022-09-12T13:06:22;24.40;44.70
37456;DHT22;23316;50.718;7.328;2022-09-12T13:08:57;24.40;44.50
37456;DHT22;23316;50.718;7.328;2022-09-12T13:11:31;24.40;44.90
37456;DHT22;23316;50.718;7.328;2022-09-12T13:14:03;24.40;44.60
37456;DHT22;23316;50.718;7.328;2022-09-12T13:16:34;24.40;44.50
37456;DHT22;23316;50.718;7.328;2022-09-12T13:19:04;24.50;44.60
37456;DHT22;23316;50.718;7.328;2022-09-12T13:21:32;24.50;44.60
37456;DHT22;23316;50.718;7.328;2022-09-12T13:24:01;24.50;44.70
37456;DHT22;23316;50.718;7.328;2022-09-12T13:26:33;24.50;44.60
37456;DHT22;23316;50.718;7.328;2022-09-12T13:29:15;24.50;44.50
37456;DHT22;23316;50.718;7.328;2022-09-12T13:31:43;24.50;44.20
37456;DHT22;23316;50.718;7.328;2022-09-12T13:34:16;24.50;44.30
37456;DHT22;23316;50.718;7.328;2022-09-12T13:37:03;24.60;44.40
37456;DHT22;23316;50.718;7.328;2022-09-12T13:39:43;24.60;44.50
37456;DHT22;23316;50.718;7.328;2022-09-12T13:42:37;24.70;44.60
37456;DHT22;23316;50.718;7.328;2022-09-12T13:45:11;24.70;44.00
37456;DHT22;23316;50.718;7.328;2022-09-12T13:47:40;24.70;43.70
37456;DHT22;23316;50.718;7.328;2022-09-12T13:50:16;24.70;44.40
37456;DHT22;23316;50.718;7.328;2022-09-12T13:52:48;24.70;43.60
37456;DHT22;23316;50.718;7.328;2022-09-12T13:55:27;24.80;43.80
37456;DHT22;23316;50.718;7.328;2022-09-12T13:57:58;24.80;43.70
37456;DHT22;23316;50.718;7.328;2022-09-12T14:00:28;24.80;43.90
37456;DHT22;23316;50.718;7.328;2022-09-12T14:02:57;24.80;44.00
37456;DHT22;23316;50.718;7.328;2022-09-12T14:05:45;24.80;43.80
37456;DHT22;23316;50.718;7.328;2022-09-12T14:08:14;24.80;43.40
37456;DHT22;23316;50.718;7.328;2022-09-12T14:10:43;24.80;43.20
37456;DHT22;23316;50.718;7.328;2022-09-12T14:13:17;24.80;43.00
37456;DHT22;23316;50.718;7.328;2022-09-12T14:15:48;24.90;42.80
37456;DHT22;23316;50.718;7.328;2022-09-12T14:18:23;24.90;42.80
37456;DHT22;23316;50.718;7.328;2022-09-12T14:20:51;24.90;43.10
37456;DHT22;23316;50.718;7.328;2022-09-12T14:23:27;24.90;43.30
37456;DHT22;23316;50.718;7.328;2022-09-12T14:25:55;24.90;43.20
37456;DHT22;23316;50.718;7.328;2022-09-12T14:28:24;25.00;43.60
37456;DHT22;23316;50.718;7.328;2022-09-12T14:31:05;25.00;43.30
37456;DHT22;23316;50.718;7.328;2022-09-12T14:33:45;25.00;43.20
37456;DHT22;23316;50.718;7.328;2022-09-12T14:36:22;25.00;43.40
37456;DHT22;23316;50.718;7.328;2022-09-12T14:38:53;25.10;43.20
37456;DHT22;23316;50.718;7.328;2022-09-12T14:41:25;25.10;43.10
37456;DHT22;23316;50.718;7.328;2022-09-12T14:43:55;25.20;43.00
37456;DHT22;23316;50.718;7.328;2022-09-12T14:46:29;25.20;42.80
37456;DHT22;23316;50.718;7.328;2022-09-12T14:49:04;25.20;43.10
37456;DHT22;23316;50.718;7.328;2022-09-12T14:51:35;25.20;43.40
37456;DHT22;23316;50.718;7.328;2022-09-12T14:54:03;25.20;43.40
37456;DHT22;23316;50.718;7.328;2022-09-12T14:56:38;25.30;43.50
37456;DHT22;23316;50.718;7.328;2022-09-12T14:59:25;25.30;43.30
37456;DHT22;23316;50.718;7.328;2022-09-12T15:05:26;25.40;42.90
37456;DHT22;23316;50.718;7.328;2022-09-12T15:07:56;25.40;43.00
37456;DHT22;23316;50.718;7.328;2022-09-12T15:10:27;25.40;43.00
37456;DHT22;23316;50.718;7.328;2022-09-12T15:13:13;25.40;42.80
37456;DHT22;23316;50.718;7.328;2022-09-12T15:15:42;25.40;42.70
37456;DHT22;23316;50.718;7.328;2022-09-12T15:18:10;25.40;42.90
37456;DHT22;23316;50.718;7.328;2022-09-12T15:20:41;25.40;43.00
37456;DHT22;23316;50.718;7.328;2022-09-12T15:23:16;25.40;43.10
37456;DHT22;23316;50.718;7.328;2022-09-12T15:25:45;25.30;43.10
37456;DHT22;23316;50.718;7.328;2022-09-12T15:28:16;25.30;43.20
37456;DHT22;23316;50.718;7.328;2022-09-12T15:30:45;25.30;42.70
37456;DHT22;23316;50.718;7.328;2022-09-12T15:33:14;25.30;42.90
37456;DHT22;23316;50.718;7.328;2022-09-12T15:35:43;25.30;43.00
37456;DHT22;23316;50.718;7.328;2022-09-12T15:38:11;25.30;42.80
37456;DHT22;23316;50.718;7.328;2022-09-12T15:40:38;25.30;43.00
37456;DHT22;23316;50.718;7.328;2022-09-12T15:43:06;25.20;42.90
37456;DHT22;23316;50.718;7.328;2022-09-12T15:45:34;25.20;42.80
37456;DHT22;23316;50.718;7.328;2022-09-12T15:48:01;25.20;43.00
37456;DHT22;23316;50.718;7.328;2022-09-12T15:50:29;25.20;43.00
37456;DHT22;23316;50.718;7.328;2022-09-12T15:52:58;25.20;43.10
37456;DHT22;23316;50.718;7.328;2022-09-12T15:55:28;25.20;43.20
37456;DHT22;23316;50.718;7.328;2022-09-12T15:57:57;25.10;42.90
37456;DHT22;23316;50.718;7.328;2022-09-12T16:00:25;25.10;42.80
37456;DHT22;23316;50.718;7.328;2022-09-12T16:02:52;25.10;43.20
37456;DHT22;23316;50.718;7.328;2022-09-12T16:05:21;25.10;43.10
37456;DHT22;23316;50.718;7.328;2022-09-12T16:07:50;25.10;43.00
37456;DHT22;23316;50.718;7.328;2022-09-12T16:10:21;25.10;43.00
37456;DHT22;23316;50.718;7.328;2022-09-12T16:12:49;25.10;43.30
37456;DHT22;23316;50.718;7.328;2022-09-12T16:15:21;25.10;43.50
37456;DHT22;23316;50.718;7.328;2022-09-12T16:17:49;25.10;43.10
37456;DHT22;23316;50.718;7.328;2022-09-12T16:20:16;25.10;43.40
37456;DHT22;23316;50.718;7.328;2022-09-12T16:22:44;25.00;43.20
37456;DHT22;23316;50.718;7.328;2022-09-12T16:25:11;25.00;43.60
37456;DHT22;23316;50.718;7.328;2022-09-12T16:27:40;25.10;43.70